createdAt,value
2019-01-28T00:03:14.000Z,16.9
2019-01-28T00:13:14.000Z,16.7
2019-01-28T00:23:13.000Z,16.7
2019-01-28T00:33:13.000Z,16.6
2019-01-28T00:43:14.000Z,16.6
2019-01-28T00:53:14.000Z,16.6
2019-01-28T01:03:14.000Z,16.6
2019-01-28T01:13:14.000Z,16.6
2019-01-28T01:23:14.000Z,16.6
2019-01-28T01:33:14.000Z,16.7
2019-01-28T01:43:14.000Z,16.7
2019-01-28T01:53:14.000Z,16.5
2019-01-28T02:03:14.000Z,16.4
2019-01-28T02:13:15.000Z,16.4
2019-01-28T02:23:14.000Z,16.4
2019-01-28T02:33:14.000Z,16.3
2019-01-28T02:43:14.000Z,16.2
2019-01-28T02:53:14.000Z,16.3
2019-01-28T03:03:14.000Z,16.3
2019-01-28T03:13:15.000Z,16.2
2019-01-28T03:23:14.000Z,16.1
2019-01-28T03:33:14.000Z,16
2019-01-28T03:43:14.000Z,16
2019-01-28T03:53:14.000Z,16
2019-01-28T04:03:14.000Z,15.9
2019-01-28T04:13:14.000Z,15.9
2019-01-28T04:23:14.000Z,15.8
2019-01-28T04:33:14.000Z,15.8
2019-01-28T04:43:14.000Z,15.8
2019-01-28T04:53:14.000Z,15.8
2019-01-28T05:03:14.000Z,15.6
2019-01-28T05:13:14.000Z,15.6
2019-01-28T05:23:14.000Z,15.6
2019-01-28T05:33:14.000Z,15.8
2019-01-28T05:43:14.000Z,15.6
2019-01-28T05:53:14.000Z,15.5
2019-01-28T06:03:14.000Z,15.4
2019-01-28T06:13:14.000Z,15.4
2019-01-28T06:23:14.000Z,15.4
2019-01-28T06:33:14.000Z,15.3
2019-01-28T06:43:14.000Z,15.4
2019-01-28T06:53:14.000Z,15.3
2019-01-28T07:03:14.000Z,16.2
2019-01-28T07:13:14.000Z,17.2
2019-01-28T07:23:14.000Z,18
2019-01-28T07:33:14.000Z,18.5
2019-01-28T07:43:14.000Z,18.7
2019-01-28T07:53:15.000Z,18.9
2019-01-28T08:03:15.000Z,19
2019-01-28T08:13:15.000Z,19.1
2019-01-28T08:23:15.000Z,19.2
2019-01-28T08:33:15.000Z,19.3
2019-01-28T08:43:15.000Z,19.3
2019-01-28T08:53:15.000Z,19.4
2019-01-28T09:13:15.000Z,19.4
2019-01-28T09:23:15.000Z,19.6
2019-01-28T09:33:15.000Z,19.6
2019-01-28T09:43:16.000Z,19.6
2019-01-28T09:53:15.000Z,19.7
2019-01-28T10:03:15.000Z,19.7
2019-01-28T10:13:15.000Z,19.7
2019-01-28T10:23:15.000Z,19.7
2019-01-28T10:33:15.000Z,19.7
2019-01-28T10:43:15.000Z,19.7
2019-01-28T10:53:15.000Z,19.8
2019-01-28T11:03:15.000Z,19.7
2019-01-28T11:13:15.000Z,19.9
2019-01-28T11:23:15.000Z,19.9
2019-01-28T11:33:15.000Z,20
2019-01-28T11:43:15.000Z,19.9
2019-01-28T11:53:15.000Z,19.9
2019-01-28T12:03:15.000Z,19.9
2019-01-28T12:13:15.000Z,19.9
2019-01-28T12:23:15.000Z,19.9
2019-01-28T12:33:15.000Z,20
2019-01-28T12:43:15.000Z,20
2019-01-28T12:53:15.000Z,20.2
2019-01-28T13:03:17.000Z,20.2
2019-01-28T13:13:15.000Z,20.3
2019-01-28T13:23:15.000Z,20.4
2019-01-28T13:33:15.000Z,20.4
2019-01-28T13:43:15.000Z,20.4
2019-01-28T13:53:15.000Z,20.3
2019-01-28T14:03:15.000Z,20.4
2019-01-28T14:13:15.000Z,20.4
2019-01-28T14:23:15.000Z,20.4
2019-01-28T14:33:15.000Z,20.4
2019-01-28T14:43:16.000Z,20.4
2019-01-28T14:53:16.000Z,20.4
2019-01-28T15:03:16.000Z,20.5
2019-01-28T15:13:16.000Z,20.5
2019-01-28T15:23:16.000Z,20.4
2019-01-28T15:33:16.000Z,20.4
2019-01-28T15:43:16.000Z,20.4
2019-01-28T15:53:16.000Z,20.5
2019-01-28T16:03:16.000Z,20.6
2019-01-28T16:23:16.000Z,20.6
2019-01-28T16:33:16.000Z,20.5
2019-01-28T16:43:16.000Z,20.5
2019-01-28T16:53:16.000Z,20.6
2019-01-28T17:03:16.000Z,20.7
2019-01-28T17:13:16.000Z,20.8
2019-01-28T17:23:17.000Z,20.8
2019-01-28T17:33:16.000Z,20.9
2019-01-28T17:43:16.000Z,20.7
2019-01-28T17:53:17.000Z,20.7
2019-01-28T18:03:16.000Z,20.6
2019-01-28T18:13:16.000Z,20.6
2019-01-28T18:23:16.000Z,20.6
2019-01-28T18:33:16.000Z,20.6
2019-01-28T18:43:16.000Z,20.6
2019-01-28T18:53:18.000Z,20.6
2019-01-28T19:03:16.000Z,20.6
2019-01-28T19:13:19.000Z,20.5
2019-01-28T19:23:16.000Z,20.5
2019-01-28T19:33:16.000Z,20.5
2019-01-28T19:43:16.000Z,20.5
2019-01-28T19:53:20.000Z,20.6
2019-01-28T20:03:17.000Z,20.6
2019-01-28T20:13:18.000Z,20.6
2019-01-28T20:23:16.000Z,20.6
2019-01-28T20:33:20.000Z,20.6
2019-01-28T20:43:17.000Z,20.7
2019-01-28T20:53:17.000Z,20.7
2019-01-28T21:03:16.000Z,20.7
2019-01-28T21:13:16.000Z,20.6
2019-01-28T21:23:19.000Z,20.7
2019-01-28T21:33:18.000Z,20.8
2019-01-28T21:43:17.000Z,20.8
2019-01-28T21:53:17.000Z,20.8
2019-01-28T22:03:17.000Z,20.8
2019-01-28T22:13:17.000Z,20.9
2019-01-28T22:23:19.000Z,20.8
2019-01-28T22:33:17.000Z,20.8
2019-01-28T22:43:17.000Z,20.8
2019-01-28T22:53:17.000Z,20.7
2019-01-28T23:03:17.000Z,18.8
2019-01-28T23:13:17.000Z,17.6
2019-01-28T23:23:17.000Z,17.1
2019-01-28T23:33:17.000Z,16.7
2019-01-28T23:43:17.000Z,16.4
2019-01-28T23:53:17.000Z,16.3
